createdAt,value
2024-01-19T00:02:11.212Z,28.73
2024-01-19T00:04:44.444Z,25.73
2024-01-19T00:07:17.175Z,23.17
2024-01-19T00:09:50.404Z,31.65
2024-01-19T00:12:23.114Z,31.45
2024-01-19T00:14:56.072Z,25.33
2024-01-19T00:17:28.953Z,23.80
2024-01-19T00:20:01.969Z,34.10
2024-01-19T00:22:34.623Z,19.42
2024-01-19T00:25:07.830Z,23.48
2024-01-19T00:27:40.544Z,19.38
2024-01-19T00:30:13.732Z,30.95
2024-01-19T00:32:46.397Z,32.60
2024-01-19T00:35:21.655Z,28.73
2024-01-19T00:37:54.794Z,29.35
2024-01-19T00:40:27.749Z,28.10
2024-01-19T00:43:00.379Z,21.00
2024-01-19T00:45:33.551Z,34.28
2024-01-19T00:48:06.300Z,26.80
2024-01-19T00:50:39.451Z,23.40
2024-01-19T00:53:12.040Z,24.02
2024-01-19T00:55:45.008Z,27.75
2024-01-19T00:58:17.578Z,20.95
2024-01-19T01:00:51.135Z,28.70
2024-01-19T01:03:24.865Z,23.52
2024-01-19T01:05:59.036Z,25.35
2024-01-19T01:08:31.817Z,27.30
2024-01-19T01:11:07.033Z,22.20
2024-01-19T01:13:39.882Z,24.02
2024-01-19T01:16:12.758Z,38.67
2024-01-19T01:18:45.586Z,27.55
2024-01-19T01:21:18.657Z,24.02
2024-01-19T01:23:51.356Z,25.75
2024-01-19T01:26:24.403Z,25.05
2024-01-19T01:28:57.196Z,22.27
2024-01-19T01:31:30.140Z,30.63
2024-01-19T01:34:05.290Z,28.73
2024-01-19T01:36:38.526Z,23.30
2024-01-19T01:39:17.828Z,37.85
2024-01-19T01:41:51.391Z,22.83
2024-01-19T01:44:24.122Z,27.67
2024-01-19T01:46:57.250Z,28.17
2024-01-19T01:49:29.983Z,19.05
2024-01-19T01:52:04.413Z,35.65
2024-01-19T01:54:37.116Z,25.55
2024-01-19T01:57:11.038Z,15.70
2024-01-19T01:59:43.880Z,20.58
2024-01-19T02:02:17.040Z,18.15
2024-01-19T02:04:49.869Z,28.50
2024-01-19T02:07:23.141Z,22.30
2024-01-19T02:09:56.016Z,21.60
2024-01-19T02:12:28.988Z,21.30
2024-01-19T02:15:01.674Z,18.48
2024-01-19T02:17:34.716Z,18.27
2024-01-19T02:20:08.821Z,11.48
2024-01-19T02:22:43.847Z,25.55
2024-01-19T02:25:16.463Z,25.40
2024-01-19T02:27:49.467Z,27.92
2024-01-19T02:30:22.244Z,22.13
2024-01-19T02:32:55.320Z,32.03
2024-01-19T02:35:27.973Z,31.55
2024-01-19T02:38:01.029Z,30.38
2024-01-19T02:40:33.734Z,25.75
2024-01-19T02:43:06.787Z,20.10
2024-01-19T02:45:39.432Z,16.90
2024-01-19T02:48:14.404Z,19.58
2024-01-19T02:50:47.247Z,27.50
2024-01-19T02:53:20.317Z,25.10
2024-01-19T02:55:52.994Z,21.83
2024-01-19T02:58:25.929Z,19.05
2024-01-19T03:01:01.068Z,14.75
2024-01-19T03:03:34.081Z,24.17
2024-01-19T03:06:07.251Z,21.60
2024-01-19T03:08:40.269Z,15.02
2024-01-19T03:11:12.915Z,19.85
2024-01-19T03:13:45.896Z,28.90
2024-01-19T03:16:18.630Z,17.17
2024-01-19T03:18:53.489Z,21.63
2024-01-19T03:21:26.047Z,24.92
2024-01-19T03:23:59.361Z,18.00
2024-01-19T03:26:32.006Z,27.58
2024-01-19T03:29:05.109Z,26.73
2024-01-19T03:31:37.766Z,19.13
2024-01-19T03:34:11.335Z,27.05
2024-01-19T03:36:44.585Z,26.02
2024-01-19T03:39:17.829Z,24.13
2024-01-19T03:41:50.591Z,21.55
2024-01-19T03:44:25.314Z,19.67
2024-01-19T03:47:01.035Z,22.70
2024-01-19T03:49:34.133Z,19.55
2024-01-19T03:52:07.690Z,21.25
2024-01-19T03:54:41.023Z,28.95
2024-01-19T03:57:13.933Z,38.67
2024-01-19T03:59:47.124Z,36.15
2024-01-19T04:02:19.788Z,19.65
2024-01-19T04:04:52.907Z,20.60
2024-01-19T04:07:25.579Z,22.98
2024-01-19T04:09:58.713Z,18.25
2024-01-19T04:12:31.392Z,14.85
2024-01-19T04:15:04.731Z,17.75
2024-01-19T04:17:39.239Z,14.45
2024-01-19T04:33:38.196Z,8.10
2024-01-19T04:36:11.256Z,11.93
2024-01-19T04:38:43.872Z,15.55
2024-01-19T04:41:16.919Z,11.88
2024-01-19T04:43:49.998Z,11.00
2024-01-19T04:46:23.134Z,12.50
2024-01-19T04:48:56.263Z,19.95
2024-01-19T04:51:32.172Z,11.80
2024-01-19T04:54:04.904Z,14.45
2024-01-19T04:56:38.032Z,17.30
2024-01-19T04:59:11.028Z,14.38
2024-01-19T05:15:06.608Z,10.02
2024-01-19T05:17:39.565Z,14.65
2024-01-19T05:20:12.609Z,11.02
2024-01-19T05:22:45.615Z,9.30
2024-01-19T05:25:20.023Z,14.43
2024-01-19T05:27:55.634Z,10.40
2024-01-19T05:30:28.377Z,13.02
2024-01-19T05:33:01.620Z,13.15
2024-01-19T05:35:34.871Z,14.07
2024-01-19T05:38:08.065Z,11.98
2024-01-19T05:40:40.811Z,12.00
2024-01-19T05:43:13.766Z,12.10
2024-01-19T05:45:46.988Z,10.98
2024-01-19T05:48:20.490Z,27.00
2024-01-19T05:50:53.430Z,16.33
2024-01-19T05:53:26.552Z,14.52
2024-01-19T05:55:59.160Z,14.57
2024-01-19T05:58:32.781Z,25.52
2024-01-19T06:01:06.773Z,16.20
2024-01-19T06:03:40.530Z,12.57
2024-01-19T06:06:13.202Z,11.75
2024-01-19T06:08:46.868Z,13.23
2024-01-19T06:11:20.883Z,15.10
2024-01-19T06:13:56.112Z,13.15
2024-01-19T06:16:28.730Z,15.43
2024-01-19T06:19:02.155Z,19.02
2024-01-19T06:21:35.565Z,15.32
2024-01-19T06:24:08.563Z,14.38
2024-01-19T06:26:43.829Z,17.70
2024-01-19T06:29:17.755Z,12.40
2024-01-19T06:31:50.556Z,14.88
2024-01-19T06:34:23.556Z,20.60
2024-01-19T06:36:56.183Z,21.75
2024-01-19T06:39:29.675Z,13.13
2024-01-19T06:42:02.482Z,19.40
2024-01-19T06:44:35.481Z,20.63
2024-01-19T06:47:08.227Z,21.27
2024-01-19T06:49:41.724Z,21.90
2024-01-19T06:52:14.431Z,26.15
2024-01-19T06:54:49.055Z,23.05
2024-01-19T06:57:22.409Z,36.13
2024-01-19T06:59:55.570Z,28.85
2024-01-19T07:02:28.505Z,25.95
2024-01-19T07:05:01.587Z,22.60
2024-01-19T07:07:34.298Z,22.67
2024-01-19T07:10:07.803Z,24.20
2024-01-19T07:12:40.471Z,27.52
2024-01-19T07:15:13.691Z,26.05
2024-01-19T07:17:46.350Z,31.30
2024-01-19T07:20:19.501Z,45.42
2024-01-19T07:22:53.391Z,45.40
2024-01-19T07:25:26.478Z,42.88
2024-01-19T07:27:59.258Z,50.85
2024-01-19T07:30:33.221Z,52.22
2024-01-19T07:33:09.263Z,41.10
2024-01-19T07:35:46.308Z,36.17
2024-01-19T07:38:20.144Z,35.60
2024-01-19T07:40:55.497Z,30.08
2024-01-19T07:43:28.233Z,34.00
2024-01-19T07:46:01.387Z,36.20
2024-01-19T07:48:34.271Z,32.45
2024-01-19T07:51:07.414Z,33.33
2024-01-19T07:53:40.066Z,32.35
2024-01-19T07:56:13.225Z,30.40
2024-01-19T07:58:45.866Z,24.10
2024-01-19T08:01:19.082Z,28.33
2024-01-19T08:03:52.250Z,28.58
2024-01-19T08:06:25.616Z,26.70
2024-01-19T08:08:58.572Z,30.90
2024-01-19T08:11:31.803Z,29.63
2024-01-19T08:14:05.131Z,35.03
2024-01-19T08:16:38.331Z,52.90
2024-01-19T08:19:11.717Z,47.78
2024-01-19T08:21:45.023Z,27.13
2024-01-19T08:24:17.744Z,35.08
2024-01-19T08:26:50.840Z,30.38
2024-01-19T08:29:23.651Z,31.10
2024-01-19T08:31:58.211Z,40.67
2024-01-19T08:34:32.533Z,39.08
2024-01-19T08:37:07.438Z,30.88
2024-01-19T08:39:40.843Z,37.15
2024-01-19T08:42:14.221Z,24.33
2024-01-19T08:44:47.079Z,43.05
2024-01-19T08:47:21.125Z,31.77
2024-01-19T08:49:54.256Z,45.83
2024-01-19T08:52:29.396Z,46.15
2024-01-19T08:55:02.218Z,34.30
2024-01-19T08:57:36.743Z,33.63
2024-01-19T09:00:09.835Z,58.85
2024-01-19T09:02:50.204Z,30.80
2024-01-19T09:05:30.820Z,41.63
2024-01-19T09:08:04.702Z,30.75
2024-01-19T09:10:37.375Z,27.10
2024-01-19T09:13:10.299Z,16.45
2024-01-19T09:15:42.911Z,38.80
2024-01-19T09:18:16.193Z,24.90
2024-01-19T09:20:49.003Z,21.08
2024-01-19T09:23:21.938Z,51.63
2024-01-19T09:25:54.688Z,29.33
2024-01-19T09:28:27.874Z,46.50
2024-01-19T09:31:02.817Z,18.80
2024-01-19T09:33:36.061Z,17.15
2024-01-19T09:36:09.362Z,27.10
2024-01-19T09:38:42.909Z,37.33
2024-01-19T09:41:25.415Z,32.22
2024-01-19T09:44:00.243Z,44.30
2024-01-19T09:46:33.993Z,30.77
2024-01-19T09:49:21.083Z,80.32
2024-01-19T09:52:12.309Z,57.17
2024-01-19T09:54:45.330Z,43.33
2024-01-19T09:57:18.541Z,39.53
2024-01-19T09:59:51.567Z,64.68
2024-01-19T10:02:24.771Z,39.75
2024-01-19T10:05:00.081Z,19.10
2024-01-19T10:07:33.732Z,15.48
2024-01-19T10:10:07.646Z,22.88
2024-01-19T10:12:40.694Z,18.73
2024-01-19T10:15:14.230Z,24.65
2024-01-19T10:17:48.177Z,36.33
2024-01-19T10:20:21.406Z,17.15
2024-01-19T10:22:54.105Z,19.75
2024-01-19T10:25:27.125Z,12.73
2024-01-19T10:27:59.716Z,20.85
2024-01-19T10:30:32.823Z,7.63
2024-01-19T10:33:06.973Z,39.83
2024-01-19T10:35:43.094Z,16.00
2024-01-19T10:38:16.051Z,35.38
2024-01-19T10:40:49.179Z,14.55
2024-01-19T10:43:24.812Z,14.23
2024-01-19T10:45:58.120Z,12.48
2024-01-19T10:48:31.019Z,17.83
2024-01-19T10:51:04.654Z,11.65
2024-01-19T10:53:37.519Z,12.40
2024-01-19T10:56:11.494Z,18.17
2024-01-19T10:58:45.083Z,12.23
2024-01-19T11:01:19.372Z,16.88
2024-01-19T11:03:52.529Z,11.13
2024-01-19T11:06:25.655Z,10.75
2024-01-19T11:08:59.466Z,10.63
2024-01-19T11:11:34.881Z,16.05
2024-01-19T11:14:08.869Z,16.17
2024-01-19T11:16:47.278Z,25.23
2024-01-19T11:19:22.318Z,27.38
2024-01-19T11:21:55.664Z,20.23
2024-01-19T11:24:30.722Z,13.68
2024-01-19T11:27:11.099Z,15.65
2024-01-19T11:29:44.897Z,17.50
2024-01-19T11:32:18.903Z,14.85
2024-01-19T11:34:52.319Z,14.00
2024-01-19T11:37:47.057Z,16.75
2024-01-19T11:40:26.183Z,11.73
2024-01-19T11:42:59.377Z,12.57
2024-01-19T11:45:41.228Z,14.32
2024-01-19T11:48:35.489Z,8.13
2024-01-19T11:51:08.597Z,13.68
2024-01-19T11:53:57.557Z,8.05
2024-01-19T11:56:30.531Z,17.40
2024-01-19T11:59:03.709Z,26.23
2024-01-19T12:01:45.591Z,10.15
2024-01-19T12:04:18.660Z,13.82
2024-01-19T12:07:03.039Z,17.55
2024-01-19T12:09:36.117Z,23.65
2024-01-19T12:12:09.659Z,17.92
2024-01-19T12:14:43.375Z,12.57
2024-01-19T12:17:17.277Z,15.43
2024-01-19T12:19:53.613Z,14.90
2024-01-19T12:22:26.606Z,16.77
2024-01-19T12:25:18.802Z,9.07
2024-01-19T12:28:04.697Z,13.20
2024-01-19T12:30:38.241Z,11.85
2024-01-19T12:33:16.300Z,8.38
2024-01-19T12:35:50.016Z,17.25
2024-01-19T12:38:22.898Z,7.70
2024-01-19T12:40:58.246Z,14.95
2024-01-19T12:43:34.740Z,11.70
2024-01-19T12:46:09.155Z,12.90
2024-01-19T12:48:41.908Z,15.23
2024-01-19T12:51:14.998Z,24.08
2024-01-19T12:53:54.050Z,9.95
2024-01-19T12:56:29.136Z,26.65
2024-01-19T12:59:13.332Z,18.13
2024-01-19T13:01:48.540Z,8.35
2024-01-19T13:04:21.225Z,10.07
2024-01-19T13:06:54.290Z,39.53
2024-01-19T13:09:27.163Z,24.48
2024-01-19T13:12:13.086Z,42.95
2024-01-19T13:14:45.860Z,43.38
2024-01-19T13:17:26.523Z,33.35
2024-01-19T13:19:59.485Z,26.90
2024-01-19T13:22:32.587Z,17.88
2024-01-19T13:25:05.727Z,16.73
2024-01-19T13:27:38.737Z,15.43
2024-01-19T13:30:11.789Z,13.00
2024-01-19T13:32:44.869Z,13.75
2024-01-19T13:35:17.600Z,23.40
2024-01-19T13:37:50.910Z,7.20
2024-01-19T13:40:23.780Z,16.27
2024-01-19T13:42:56.775Z,7.20
2024-01-19T13:45:30.336Z,17.85
2024-01-19T13:48:04.148Z,8.32
2024-01-19T13:50:37.014Z,9.30
2024-01-19T13:53:10.438Z,8.55
2024-01-19T13:55:54.818Z,8.48
2024-01-19T13:58:31.001Z,11.60
2024-01-19T14:01:09.038Z,13.90
2024-01-19T14:03:42.286Z,20.33
2024-01-19T14:06:15.829Z,11.40
2024-01-19T14:08:53.929Z,12.73
2024-01-19T14:11:26.737Z,13.52
2024-01-19T14:13:59.765Z,18.17
2024-01-19T14:16:33.736Z,16.63
2024-01-19T14:19:07.067Z,21.50
2024-01-19T14:21:40.896Z,21.00
2024-01-19T14:24:14.097Z,27.00
2024-01-19T14:26:46.795Z,24.27
2024-01-19T14:29:19.803Z,24.05
2024-01-19T14:31:52.647Z,22.40
2024-01-19T14:34:27.256Z,26.90
2024-01-19T14:37:00.313Z,21.38
2024-01-19T14:39:33.362Z,25.33
2024-01-19T14:42:06.191Z,21.45
2024-01-19T14:44:39.249Z,21.33
2024-01-19T14:47:11.963Z,21.45
2024-01-19T14:49:51.708Z,14.55
2024-01-19T14:52:25.092Z,39.97
2024-01-19T14:55:00.075Z,36.03
2024-01-19T14:57:33.022Z,34.33
2024-01-19T15:00:12.734Z,37.92
2024-01-19T15:02:45.667Z,30.52
2024-01-19T15:05:18.675Z,29.40
2024-01-19T15:07:51.532Z,17.45
2024-01-19T15:10:24.750Z,15.15
2024-01-19T15:12:57.534Z,20.15
2024-01-19T15:15:30.598Z,58.05
2024-01-19T15:18:03.297Z,60.28
2024-01-19T15:20:36.384Z,76.15
2024-01-19T15:23:09.620Z,66.45
2024-01-19T15:25:42.928Z,102.32
2024-01-19T15:28:15.876Z,83.63
2024-01-19T15:30:48.885Z,68.82
2024-01-19T15:33:21.636Z,71.45
2024-01-19T15:35:54.705Z,59.03
2024-01-19T15:38:30.332Z,46.22
2024-01-19T15:41:04.488Z,41.78
2024-01-19T15:43:37.448Z,71.15
2024-01-19T15:46:10.430Z,50.80
2024-01-19T15:48:47.904Z,46.17
2024-01-19T15:51:27.977Z,56.92
2024-01-19T15:54:00.821Z,37.92
2024-01-19T15:56:37.760Z,80.25
2024-01-19T15:59:12.953Z,68.43
2024-01-19T16:01:46.700Z,48.85
2024-01-19T16:04:19.399Z,55.88
2024-01-19T16:06:52.502Z,79.47
2024-01-19T16:09:25.190Z,59.92
2024-01-19T16:11:58.399Z,58.83
2024-01-19T16:14:31.627Z,81.25
2024-01-19T16:17:07.214Z,89.75
2024-01-19T16:19:39.984Z,84.05
2024-01-19T16:22:13.034Z,108.82
2024-01-19T16:24:46.243Z,137.77
2024-01-19T16:27:24.492Z,69.18
2024-01-19T16:29:57.281Z,57.72
2024-01-19T16:32:30.649Z,56.80
2024-01-19T16:35:03.757Z,44.13
2024-01-19T16:37:36.923Z,49.47
2024-01-19T16:40:10.026Z,40.90
2024-01-19T16:42:45.729Z,26.30
2024-01-19T16:45:21.703Z,28.88
2024-01-19T16:48:01.221Z,42.83
2024-01-19T16:50:35.348Z,36.38
2024-01-19T16:53:08.744Z,42.58
2024-01-19T16:55:41.626Z,14.25
2024-01-19T16:58:16.635Z,35.33
2024-01-19T17:00:49.483Z,18.65
2024-01-19T17:03:22.567Z,21.23
2024-01-19T17:05:55.376Z,20.10
2024-01-19T17:08:28.526Z,18.50
2024-01-19T17:11:01.332Z,28.85
2024-01-19T17:13:36.111Z,25.35
2024-01-19T17:16:09.228Z,33.55
2024-01-19T17:18:42.442Z,28.50
2024-01-19T17:21:15.307Z,33.90
2024-01-19T17:23:48.522Z,20.50
2024-01-19T17:26:25.240Z,15.52
2024-01-19T17:28:58.872Z,29.85
2024-01-19T17:31:31.900Z,29.77
2024-01-19T17:34:09.522Z,31.85
2024-01-19T17:36:43.739Z,44.55
2024-01-19T17:39:17.079Z,39.10
2024-01-19T17:41:51.013Z,55.88
2024-01-19T17:44:24.035Z,38.75
2024-01-19T17:46:58.131Z,52.08
2024-01-19T17:49:31.290Z,40.67
2024-01-19T17:52:04.166Z,29.35
2024-01-19T17:54:37.171Z,21.17
2024-01-19T17:57:09.766Z,32.85
2024-01-19T17:59:42.890Z,44.58
2024-01-19T18:02:15.913Z,33.53
2024-01-19T18:04:50.193Z,53.92
2024-01-19T18:07:22.846Z,46.40
2024-01-19T18:09:56.161Z,55.72
2024-01-19T18:12:29.992Z,37.95
2024-01-19T18:15:03.689Z,45.20
2024-01-19T18:17:36.582Z,32.95
2024-01-19T18:20:10.371Z,31.33
2024-01-19T18:22:43.229Z,42.30
2024-01-19T18:25:17.096Z,25.33
2024-01-19T18:27:49.784Z,26.80
2024-01-19T18:30:23.059Z,27.20
2024-01-19T18:32:55.974Z,50.78
2024-01-19T18:35:29.296Z,25.58
2024-01-19T18:38:02.215Z,51.65
2024-01-19T18:40:36.212Z,50.38
2024-01-19T18:43:08.912Z,51.35
2024-01-19T18:45:41.887Z,47.92
2024-01-19T18:48:15.084Z,58.50
2024-01-19T18:50:48.270Z,52.42
2024-01-19T18:53:21.119Z,63.38
2024-01-19T18:55:55.136Z,52.15
2024-01-19T18:58:29.609Z,48.53
2024-01-19T19:01:03.411Z,30.52
2024-01-19T19:03:36.394Z,23.45
2024-01-19T19:06:09.617Z,25.67
2024-01-19T19:08:42.369Z,35.72
2024-01-19T19:11:15.890Z,29.42
2024-01-19T19:13:49.058Z,31.25
2024-01-19T19:16:30.917Z,34.05
2024-01-19T19:19:11.541Z,40.15
2024-01-19T19:21:44.726Z,42.72
2024-01-19T19:24:17.350Z,54.90
2024-01-19T19:26:50.301Z,35.03
2024-01-19T19:29:24.308Z,27.60
2024-01-19T19:31:57.665Z,27.13
2024-01-19T19:34:30.457Z,39.70
2024-01-19T19:37:04.230Z,24.10
2024-01-19T19:39:37.245Z,45.38
2024-01-19T19:42:10.522Z,38.30
2024-01-19T19:44:43.262Z,48.47
2024-01-19T19:47:16.646Z,53.95
2024-01-19T19:49:49.529Z,41.78
2024-01-19T19:52:22.613Z,37.95
2024-01-19T19:54:55.316Z,30.88
2024-01-19T19:57:28.415Z,31.45
2024-01-19T20:00:01.187Z,35.30
2024-01-19T20:02:34.597Z,29.35
2024-01-19T20:05:07.673Z,34.13
2024-01-19T20:07:40.843Z,27.95
2024-01-19T20:10:14.214Z,37.05
2024-01-19T20:12:47.294Z,30.38
2024-01-19T20:15:20.605Z,31.25
2024-01-19T20:17:53.846Z,35.42
2024-01-19T20:20:26.827Z,32.65
2024-01-19T20:22:59.898Z,26.88
2024-01-19T20:25:32.637Z,35.72
2024-01-19T20:28:05.885Z,33.53
2024-01-19T20:30:39.107Z,40.95
2024-01-19T20:33:12.165Z,35.22
2024-01-19T20:35:44.976Z,36.90
2024-01-19T20:38:18.534Z,34.25
2024-01-19T20:40:51.688Z,25.90
2024-01-19T20:43:24.889Z,45.28
2024-01-19T20:45:57.556Z,28.38
2024-01-19T20:48:30.706Z,34.15
2024-01-19T20:51:03.480Z,28.13
2024-01-19T20:53:36.768Z,24.13
2024-01-19T20:56:09.474Z,25.23
2024-01-19T20:58:42.490Z,27.40
2024-01-19T21:01:15.518Z,27.08
2024-01-19T21:03:48.905Z,21.63
2024-01-19T21:06:23.809Z,28.83
2024-01-19T21:08:57.720Z,33.67
2024-01-19T21:11:30.852Z,31.38
2024-01-19T21:14:04.828Z,35.92
2024-01-19T21:16:43.300Z,28.80
2024-01-19T21:19:16.594Z,24.17
2024-01-19T21:21:49.481Z,34.78
2024-01-19T21:24:22.493Z,21.52
2024-01-19T21:26:55.439Z,20.95
2024-01-19T21:29:28.417Z,19.08
2024-01-19T21:32:02.953Z,19.40
2024-01-19T21:34:36.048Z,23.85
2024-01-19T21:37:09.049Z,22.33
2024-01-19T21:39:43.239Z,24.70
2024-01-19T21:42:18.488Z,13.35
2024-01-19T21:44:51.622Z,14.20
2024-01-19T21:47:24.676Z,16.45
2024-01-19T21:49:58.652Z,19.70
2024-01-19T21:52:31.292Z,14.60
2024-01-19T21:55:04.790Z,22.58
2024-01-19T21:57:37.433Z,14.75
2024-01-19T22:00:11.546Z,21.85
2024-01-19T22:02:48.171Z,32.47
2024-01-19T22:05:22.458Z,44.38
2024-01-19T22:07:55.253Z,55.83
2024-01-19T22:10:28.488Z,39.90
2024-01-19T22:13:01.206Z,36.95
2024-01-19T22:15:36.290Z,26.67
2024-01-19T22:18:09.934Z,34.92
2024-01-19T22:20:43.281Z,23.35
2024-01-19T22:23:16.482Z,34.00
2024-01-19T22:25:49.595Z,26.40
2024-01-19T22:28:22.572Z,22.48
2024-01-19T22:30:55.981Z,19.10
2024-01-19T22:33:28.822Z,19.73
2024-01-19T22:36:07.901Z,23.60
2024-01-19T22:38:47.702Z,15.55
2024-01-19T22:41:21.334Z,28.08
2024-01-19T22:43:54.746Z,24.52
2024-01-19T22:46:28.240Z,18.90
2024-01-19T22:49:01.256Z,17.75
2024-01-19T22:51:34.913Z,33.78
2024-01-19T22:54:08.001Z,18.52
2024-01-19T22:56:41.392Z,26.33
2024-01-19T22:59:14.136Z,25.80
2024-01-19T23:01:48.824Z,24.75
2024-01-19T23:04:21.679Z,21.98
2024-01-19T23:06:54.687Z,30.80
2024-01-19T23:09:27.384Z,21.70
2024-01-19T23:12:02.951Z,24.00
2024-01-19T23:14:35.955Z,29.33
2024-01-19T23:17:09.084Z,16.05
2024-01-19T23:19:41.944Z,14.52
2024-01-19T23:22:15.763Z,27.52
2024-01-19T23:24:48.531Z,29.63
2024-01-19T23:27:21.860Z,20.90
2024-01-19T23:29:54.727Z,25.98
2024-01-19T23:32:27.974Z,30.40
2024-01-19T23:35:03.056Z,36.95
2024-01-19T23:37:36.199Z,41.58
2024-01-19T23:40:09.259Z,30.02
2024-01-19T23:42:42.862Z,14.45
2024-01-19T23:45:17.353Z,30.88
2024-01-19T23:47:50.678Z,24.50
2024-01-19T23:50:23.778Z,18.50
2024-01-19T23:52:57.100Z,29.33
2024-01-19T23:55:30.028Z,15.98
2024-01-19T23:58:03.389Z,28.00
